sensor_id;sensor_type;location;lat;lon;timestamp;P1;durP1;ratioP1;P2;durP2;ratioP2
13849;SDS011;6995;52.618;13.488;2023-05-10T00:00:14;25.37;;;23.70;;
13849;SDS011;6995;52.618;13.488;2023-05-10T00:02:40;25.37;;;23.90;;
13849;SDS011;6995;52.618;13.488;2023-05-10T00:05:07;26.20;;;24.50;;
13849;SDS011;6995;52.618;13.488;2023-05-10T00:07:33;25.57;;;24.17;;
13849;SDS011;6995;52.618;13.488;2023-05-10T00:09:58;24.30;;;22.70;;
13849;SDS011;6995;52.618;13.488;2023-05-10T00:12:24;24.27;;;22.90;;
13849;SDS011;6995;52.618;13.488;2023-05-10T00:14:50;23.73;;;22.43;;
13849;SDS011;6995;52.618;13.488;2023-05-10T00:17:15;26.03;;;24.30;;
13849;SDS011;6995;52.618;13.488;2023-05-10T00:19:41;26.50;;;24.87;;
13849;SDS011;6995;52.618;13.488;2023-05-10T00:22:17;24.03;;;22.73;;
13849;SDS011;6995;52.618;13.488;2023-05-10T00:24:42;27.73;;;26.13;;
13849;SDS011;6995;52.618;13.488;2023-05-10T00:27:08;24.57;;;22.67;;
13849;SDS011;6995;52.618;13.488;2023-05-10T00:29:34;24.40;;;22.90;;
13849;SDS011;6995;52.618;13.488;2023-05-10T00:32:00;25.40;;;23.70;;
13849;SDS011;6995;52.618;13.488;2023-05-10T00:34:25;26.90;;;25.20;;
13849;SDS011;6995;52.618;13.488;2023-05-10T00:36:51;25.87;;;24.00;;
13849;SDS011;6995;52.618;13.488;2023-05-10T00:39:16;24.77;;;23.13;;
13849;SDS011;6995;52.618;13.488;2023-05-10T00:41:42;26.30;;;24.27;;
13849;SDS011;6995;52.618;13.488;2023-05-10T00:44:08;25.50;;;24.00;;
13849;SDS011;6995;52.618;13.488;2023-05-10T00:46:33;27.00;;;25.40;;
13849;SDS011;6995;52.618;13.488;2023-05-10T00:48:59;24.33;;;22.93;;
13849;SDS011;6995;52.618;13.488;2023-05-10T00:51:25;24.23;;;22.73;;
13849;SDS011;6995;52.618;13.488;2023-05-10T00:53:51;27.47;;;25.80;;
13849;SDS011;6995;52.618;13.488;2023-05-10T00:56:17;25.50;;;24.00;;
13849;SDS011;6995;52.618;13.488;2023-05-10T00:58:42;25.30;;;23.80;;
13849;SDS011;6995;52.618;13.488;2023-05-10T01:01:08;25.27;;;23.80;;
13849;SDS011;6995;52.618;13.488;2023-05-10T01:03:35;24.90;;;23.60;;
13849;SDS011;6995;52.618;13.488;2023-05-10T01:06:02;24.70;;;22.93;;
13849;SDS011;6995;52.618;13.488;2023-05-10T01:08:28;26.90;;;25.20;;
13849;SDS011;6995;52.618;13.488;2023-05-10T01:10:54;25.47;;;23.50;;
13849;SDS011;6995;52.618;13.488;2023-05-10T01:13:28;26.47;;;24.83;;
13849;SDS011;6995;52.618;13.488;2023-05-10T01:15:58;28.33;;;26.80;;
13849;SDS011;6995;52.618;13.488;2023-05-10T01:18:24;26.37;;;24.77;;
13849;SDS011;6995;52.618;13.488;2023-05-10T01:20:55;27.00;;;25.30;;
13849;SDS011;6995;52.618;13.488;2023-05-10T01:23:44;26.77;;;24.93;;
13849;SDS011;6995;52.618;13.488;2023-05-10T01:29:11;24.10;;;22.70;;
13849;SDS011;6995;52.618;13.488;2023-05-10T01:31:59;28.00;;;26.37;;
13849;SDS011;6995;52.618;13.488;2023-05-10T01:34:42;25.17;;;23.57;;
13849;SDS011;6995;52.618;13.488;2023-05-10T01:37:21;27.00;;;25.30;;
13849;SDS011;6995;52.618;13.488;2023-05-10T01:42:46;26.30;;;24.60;;
13849;SDS011;6995;52.618;13.488;2023-05-10T01:47:50;26.47;;;24.90;;
13849;SDS011;6995;52.618;13.488;2023-05-10T01:50:27;28.20;;;26.53;;
13849;SDS011;6995;52.618;13.488;2023-05-10T01:52:56;25.90;;;24.50;;
13849;SDS011;6995;52.618;13.488;2023-05-10T01:55:25;28.43;;;26.53;;
13849;SDS011;6995;52.618;13.488;2023-05-10T01:58:00;27.63;;;25.93;;
13849;SDS011;6995;52.618;13.488;2023-05-10T02:00:34;26.33;;;24.70;;
13849;SDS011;6995;52.618;13.488;2023-05-10T02:03:03;26.17;;;24.37;;
13849;SDS011;6995;52.618;13.488;2023-05-10T02:05:31;25.27;;;23.93;;
13849;SDS011;6995;52.618;13.488;2023-05-10T02:07:58;27.67;;;25.70;;
13849;SDS011;6995;52.618;13.488;2023-05-10T02:10:26;27.53;;;25.63;;
13849;SDS011;6995;52.618;13.488;2023-05-10T02:12:53;28.17;;;26.43;;
13849;SDS011;6995;52.618;13.488;2023-05-10T02:15:20;25.60;;;24.10;;
13849;SDS011;6995;52.618;13.488;2023-05-10T02:17:48;25.87;;;24.37;;
13849;SDS011;6995;52.618;13.488;2023-05-10T02:20:14;25.80;;;24.07;;
13849;SDS011;6995;52.618;13.488;2023-05-10T02:22:41;29.03;;;26.57;;
13849;SDS011;6995;52.618;13.488;2023-05-10T02:25:09;27.43;;;25.73;;
13849;SDS011;6995;52.618;13.488;2023-05-10T02:27:38;26.50;;;24.87;;
13849;SDS011;6995;52.618;13.488;2023-05-10T02:30:05;26.50;;;24.73;;
13849;SDS011;6995;52.618;13.488;2023-05-10T02:32:31;26.27;;;24.77;;
13849;SDS011;6995;52.618;13.488;2023-05-10T02:34:58;27.63;;;25.73;;
13849;SDS011;6995;52.618;13.488;2023-05-10T02:37:27;25.60;;;24.17;;
13849;SDS011;6995;52.618;13.488;2023-05-10T02:39:54;26.20;;;24.37;;
13849;SDS011;6995;52.618;13.488;2023-05-10T02:42:23;26.40;;;24.90;;
13849;SDS011;6995;52.618;13.488;2023-05-10T02:44:52;27.83;;;26.00;;
13849;SDS011;6995;52.618;13.488;2023-05-10T02:47:21;26.27;;;24.73;;
13849;SDS011;6995;52.618;13.488;2023-05-10T02:49:46;25.33;;;23.90;;
13849;SDS011;6995;52.618;13.488;2023-05-10T02:52:12;24.57;;;23.07;;
13849;SDS011;6995;52.618;13.488;2023-05-10T02:54:45;25.27;;;23.77;;
13849;SDS011;6995;52.618;13.488;2023-05-10T02:57:15;24.90;;;23.37;;
13849;SDS011;6995;52.618;13.488;2023-05-10T02:59:43;25.17;;;23.60;;
13849;SDS011;6995;52.618;13.488;2023-05-10T03:02:10;29.47;;;27.60;;
13849;SDS011;6995;52.618;13.488;2023-05-10T03:04:37;27.00;;;25.30;;
13849;SDS011;6995;52.618;13.488;2023-05-10T03:07:03;25.83;;;24.37;;
13849;SDS011;6995;52.618;13.488;2023-05-10T03:09:29;25.53;;;24.03;;
13849;SDS011;6995;52.618;13.488;2023-05-10T03:11:56;26.37;;;24.57;;
13849;SDS011;6995;52.618;13.488;2023-05-10T03:17:23;26.20;;;24.47;;
13849;SDS011;6995;52.618;13.488;2023-05-10T03:20:12;27.73;;;26.17;;
13849;SDS011;6995;52.618;13.488;2023-05-10T03:25:41;26.40;;;24.80;;
13849;SDS011;6995;52.618;13.488;2023-05-10T03:28:08;25.67;;;24.10;;
13849;SDS011;6995;52.618;13.488;2023-05-10T03:30:34;27.87;;;26.10;;
13849;SDS011;6995;52.618;13.488;2023-05-10T03:33:07;27.00;;;25.60;;
13849;SDS011;6995;52.618;13.488;2023-05-10T03:35:33;28.07;;;25.97;;
13849;SDS011;6995;52.618;13.488;2023-05-10T03:37:59;30.20;;;28.33;;
13849;SDS011;6995;52.618;13.488;2023-05-10T03:40:26;29.83;;;27.90;;
13849;SDS011;6995;52.618;13.488;2023-05-10T03:42:54;28.60;;;26.87;;
13849;SDS011;6995;52.618;13.488;2023-05-10T03:45:20;28.97;;;27.17;;
13849;SDS011;6995;52.618;13.488;2023-05-10T03:47:45;29.13;;;27.57;;
13849;SDS011;6995;52.618;13.488;2023-05-10T03:50:11;34.10;;;31.67;;
13849;SDS011;6995;52.618;13.488;2023-05-10T03:52:37;25.70;;;24.00;;
13849;SDS011;6995;52.618;13.488;2023-05-10T03:55:04;27.93;;;26.30;;
13849;SDS011;6995;52.618;13.488;2023-05-10T03:57:30;24.63;;;23.23;;
13849;SDS011;6995;52.618;13.488;2023-05-10T03:59:56;26.73;;;25.13;;
13849;SDS011;6995;52.618;13.488;2023-05-10T04:02:23;25.23;;;23.47;;
13849;SDS011;6995;52.618;13.488;2023-05-10T04:04:49;27.53;;;25.90;;
13849;SDS011;6995;52.618;13.488;2023-05-10T04:07:15;25.47;;;23.93;;
13849;SDS011;6995;52.618;13.488;2023-05-10T04:09:41;26.70;;;24.90;;
13849;SDS011;6995;52.618;13.488;2023-05-10T04:12:07;25.37;;;23.77;;
13849;SDS011;6995;52.618;13.488;2023-05-10T04:14:33;23.13;;;21.63;;
13849;SDS011;6995;52.618;13.488;2023-05-10T04:16:58;25.37;;;23.77;;
13849;SDS011;6995;52.618;13.488;2023-05-10T04:19:24;25.37;;;23.40;;
13849;SDS011;6995;52.618;13.488;2023-05-10T04:21:54;25.07;;;23.20;;
13849;SDS011;6995;52.618;13.488;2023-05-10T04:24:20;27.93;;;26.13;;
13849;SDS011;6995;52.618;13.488;2023-05-10T04:26:45;23.17;;;21.70;;
13849;SDS011;6995;52.618;13.488;2023-05-10T04:29:11;23.37;;;21.90;;
13849;SDS011;6995;52.618;13.488;2023-05-10T04:31:36;24.97;;;23.57;;
13849;SDS011;6995;52.618;13.488;2023-05-10T04:34:02;24.27;;;22.77;;
13849;SDS011;6995;52.618;13.488;2023-05-10T04:36:28;28.40;;;26.43;;
13849;SDS011;6995;52.618;13.488;2023-05-10T04:38:53;24.70;;;23.30;;
13849;SDS011;6995;52.618;13.488;2023-05-10T04:41:19;27.10;;;25.30;;
13849;SDS011;6995;52.618;13.488;2023-05-10T04:43:45;24.63;;;23.07;;
13849;SDS011;6995;52.618;13.488;2023-05-10T04:46:11;24.47;;;23.00;;
13849;SDS011;6995;52.618;13.488;2023-05-10T04:48:37;25.43;;;23.83;;
13849;SDS011;6995;52.618;13.488;2023-05-10T04:51:03;24.73;;;23.33;;
13849;SDS011;6995;52.618;13.488;2023-05-10T04:53:29;25.80;;;24.00;;
13849;SDS011;6995;52.618;13.488;2023-05-10T04:55:54;25.87;;;24.20;;
13849;SDS011;6995;52.618;13.488;2023-05-10T04:58:20;23.43;;;22.20;;
13849;SDS011;6995;52.618;13.488;2023-05-10T05:00:46;24.87;;;23.37;;
13849;SDS011;6995;52.618;13.488;2023-05-10T05:03:11;25.07;;;23.63;;
13849;SDS011;6995;52.618;13.488;2023-05-10T05:05:37;26.23;;;24.43;;
13849;SDS011;6995;52.618;13.488;2023-05-10T05:08:03;26.00;;;24.43;;
13849;SDS011;6995;52.618;13.488;2023-05-10T05:10:28;24.57;;;23.10;;
13849;SDS011;6995;52.618;13.488;2023-05-10T05:12:54;25.10;;;23.43;;
13849;SDS011;6995;52.618;13.488;2023-05-10T05:15:20;25.23;;;23.67;;
13849;SDS011;6995;52.618;13.488;2023-05-10T05:17:46;25.00;;;23.30;;
13849;SDS011;6995;52.618;13.488;2023-05-10T05:20:12;26.50;;;24.93;;
13849;SDS011;6995;52.618;13.488;2023-05-10T05:22:38;23.70;;;22.10;;
13849;SDS011;6995;52.618;13.488;2023-05-10T05:25:04;22.67;;;21.13;;
13849;SDS011;6995;52.618;13.488;2023-05-10T05:27:30;24.87;;;23.37;;
13849;SDS011;6995;52.618;13.488;2023-05-10T05:29:57;23.70;;;22.40;;
13849;SDS011;6995;52.618;13.488;2023-05-10T05:32:23;26.37;;;24.83;;
13849;SDS011;6995;52.618;13.488;2023-05-10T05:34:49;25.37;;;23.93;;
13849;SDS011;6995;52.618;13.488;2023-05-10T05:37:16;30.37;;;28.33;;
13849;SDS011;6995;52.618;13.488;2023-05-10T05:39:43;25.60;;;23.97;;
13849;SDS011;6995;52.618;13.488;2023-05-10T05:42:09;33.10;;;31.23;;
13849;SDS011;6995;52.618;13.488;2023-05-10T05:44:35;22.90;;;21.40;;
13849;SDS011;6995;52.618;13.488;2023-05-10T05:47:01;25.80;;;24.40;;
13849;SDS011;6995;52.618;13.488;2023-05-10T05:49:27;23.13;;;21.80;;
13849;SDS011;6995;52.618;13.488;2023-05-10T05:51:52;23.17;;;21.70;;
13849;SDS011;6995;52.618;13.488;2023-05-10T05:54:18;24.00;;;22.07;;
13849;SDS011;6995;52.618;13.488;2023-05-10T05:56:44;25.05;;;23.02;;
13849;SDS011;6995;52.618;13.488;2023-05-10T05:59:10;21.65;;;19.98;;
13849;SDS011;6995;52.618;13.488;2023-05-10T06:01:36;22.58;;;21.13;;
13849;SDS011;6995;52.618;13.488;2023-05-10T06:04:01;22.70;;;21.15;;
13849;SDS011;6995;52.618;13.488;2023-05-10T06:06:27;21.67;;;20.30;;
13849;SDS011;6995;52.618;13.488;2023-05-10T06:08:54;22.08;;;20.70;;
13849;SDS011;6995;52.618;13.488;2023-05-10T06:11:20;21.92;;;20.55;;
13849;SDS011;6995;52.618;13.488;2023-05-10T06:13:46;24.60;;;23.08;;
13849;SDS011;6995;52.618;13.488;2023-05-10T06:16:12;21.35;;;20.15;;
13849;SDS011;6995;52.618;13.488;2023-05-10T06:18:38;26.92;;;24.90;;
13849;SDS011;6995;52.618;13.488;2023-05-10T06:21:04;20.98;;;19.65;;
13849;SDS011;6995;52.618;13.488;2023-05-10T06:23:30;22.35;;;20.75;;
13849;SDS011;6995;52.618;13.488;2023-05-10T06:25:55;19.77;;;18.48;;
13849;SDS011;6995;52.618;13.488;2023-05-10T06:28:21;19.67;;;18.52;;
13849;SDS011;6995;52.618;13.488;2023-05-10T06:30:47;19.67;;;18.60;;
13849;SDS011;6995;52.618;13.488;2023-05-10T06:33:12;23.38;;;21.60;;
13849;SDS011;6995;52.618;13.488;2023-05-10T06:35:38;20.88;;;19.77;;
13849;SDS011;6995;52.618;13.488;2023-05-10T06:38:04;22.35;;;21.23;;
13849;SDS011;6995;52.618;13.488;2023-05-10T06:40:30;21.80;;;20.60;;
13849;SDS011;6995;52.618;13.488;2023-05-10T06:42:55;20.15;;;18.95;;
13849;SDS011;6995;52.618;13.488;2023-05-10T06:45:21;23.08;;;21.65;;
13849;SDS011;6995;52.618;13.488;2023-05-10T06:47:47;22.13;;;20.73;;
13849;SDS011;6995;52.618;13.488;2023-05-10T06:50:12;22.83;;;20.95;;
13849;SDS011;6995;52.618;13.488;2023-05-10T06:52:38;23.13;;;20.88;;
13849;SDS011;6995;52.618;13.488;2023-05-10T06:55:04;21.92;;;20.70;;
13849;SDS011;6995;52.618;13.488;2023-05-10T06:57:30;22.90;;;21.13;;
13849;SDS011;6995;52.618;13.488;2023-05-10T06:59:57;28.98;;;26.80;;
13849;SDS011;6995;52.618;13.488;2023-05-10T07:02:25;24.02;;;22.75;;
13849;SDS011;6995;52.618;13.488;2023-05-10T07:04:51;27.10;;;25.45;;
13849;SDS011;6995;52.618;13.488;2023-05-10T07:07:17;24.83;;;23.20;;
13849;SDS011;6995;52.618;13.488;2023-05-10T07:09:43;26.00;;;24.65;;
13849;SDS011;6995;52.618;13.488;2023-05-10T07:12:09;27.05;;;25.27;;
13849;SDS011;6995;52.618;13.488;2023-05-10T07:14:35;21.92;;;20.63;;
13849;SDS011;6995;52.618;13.488;2023-05-10T07:17:01;20.00;;;18.90;;
13849;SDS011;6995;52.618;13.488;2023-05-10T07:19:26;20.23;;;19.02;;
13849;SDS011;6995;52.618;13.488;2023-05-10T07:21:54;23.35;;;21.83;;
13849;SDS011;6995;52.618;13.488;2023-05-10T07:24:20;20.52;;;19.52;;
13849;SDS011;6995;52.618;13.488;2023-05-10T07:26:45;20.88;;;19.73;;
13849;SDS011;6995;52.618;13.488;2023-05-10T07:29:11;19.77;;;18.67;;
13849;SDS011;6995;52.618;13.488;2023-05-10T07:31:37;19.65;;;18.23;;
13849;SDS011;6995;52.618;13.488;2023-05-10T07:34:02;25.02;;;20.08;;
13849;SDS011;6995;52.618;13.488;2023-05-10T07:36:28;22.02;;;20.70;;
13849;SDS011;6995;52.618;13.488;2023-05-10T07:38:53;19.35;;;17.88;;
13849;SDS011;6995;52.618;13.488;2023-05-10T07:41:19;20.48;;;19.23;;
13849;SDS011;6995;52.618;13.488;2023-05-10T07:43:46;21.52;;;20.27;;
13849;SDS011;6995;52.618;13.488;2023-05-10T07:46:11;20.75;;;19.23;;
13849;SDS011;6995;52.618;13.488;2023-05-10T07:48:37;19.77;;;18.67;;
13849;SDS011;6995;52.618;13.488;2023-05-10T07:51:03;19.55;;;18.38;;
13849;SDS011;6995;52.618;13.488;2023-05-10T07:53:28;20.48;;;18.95;;
13849;SDS011;6995;52.618;13.488;2023-05-10T07:55:56;19.58;;;18.48;;
13849;SDS011;6995;52.618;13.488;2023-05-10T07:58:23;23.08;;;21.77;;
13849;SDS011;6995;52.618;13.488;2023-05-10T08:00:49;21.63;;;20.42;;
13849;SDS011;6995;52.618;13.488;2023-05-10T08:03:15;20.35;;;19.00;;
13849;SDS011;6995;52.618;13.488;2023-05-10T08:05:41;19.10;;;17.92;;
13849;SDS011;6995;52.618;13.488;2023-05-10T08:08:07;20.23;;;19.05;;
13849;SDS011;6995;52.618;13.488;2023-05-10T08:10:32;19.58;;;18.48;;
13849;SDS011;6995;52.618;13.488;2023-05-10T08:12:58;20.33;;;19.00;;
13849;SDS011;6995;52.618;13.488;2023-05-10T08:15:24;19.20;;;17.95;;
13849;SDS011;6995;52.618;13.488;2023-05-10T08:17:51;19.77;;;18.60;;
13849;SDS011;6995;52.618;13.488;2023-05-10T08:20:16;22.90;;;21.10;;
13849;SDS011;6995;52.618;13.488;2023-05-10T08:22:44;18.90;;;17.80;;
13849;SDS011;6995;52.618;13.488;2023-05-10T08:25:10;21.52;;;19.98;;
13849;SDS011;6995;52.618;13.488;2023-05-10T08:27:36;21.83;;;20.40;;
13849;SDS011;6995;52.618;13.488;2023-05-10T08:30:02;22.20;;;20.67;;
13849;SDS011;6995;52.618;13.488;2023-05-10T08:32:28;20.35;;;18.98;;
13849;SDS011;6995;52.618;13.488;2023-05-10T08:34:53;22.13;;;20.60;;
13849;SDS011;6995;52.618;13.488;2023-05-10T08:37:19;22.00;;;20.48;;
13849;SDS011;6995;52.618;13.488;2023-05-10T08:39:45;21.08;;;19.42;;
13849;SDS011;6995;52.618;13.488;2023-05-10T08:42:12;19.80;;;18.67;;
13849;SDS011;6995;52.618;13.488;2023-05-10T08:44:44;22.38;;;21.10;;
13849;SDS011;6995;52.618;13.488;2023-05-10T08:47:13;19.38;;;18.38;;
13849;SDS011;6995;52.618;13.488;2023-05-10T08:49:43;22.25;;;20.63;;
13849;SDS011;6995;52.618;13.488;2023-05-10T08:52:12;22.58;;;21.23;;
13849;SDS011;6995;52.618;13.488;2023-05-10T08:54:41;19.85;;;18.50;;
13849;SDS011;6995;52.618;13.488;2023-05-10T08:57:07;23.27;;;21.98;;
13849;SDS011;6995;52.618;13.488;2023-05-10T08:59:33;20.58;;;19.58;;
13849;SDS011;6995;52.618;13.488;2023-05-10T09:01:59;24.35;;;22.52;;
13849;SDS011;6995;52.618;13.488;2023-05-10T09:04:26;22.45;;;21.08;;
13849;SDS011;6995;52.618;13.488;2023-05-10T09:06:53;22.98;;;21.73;;
13849;SDS011;6995;52.618;13.488;2023-05-10T09:09:19;21.17;;;20.05;;
13849;SDS011;6995;52.618;13.488;2023-05-10T09:11:46;23.25;;;21.63;;
13849;SDS011;6995;52.618;13.488;2023-05-10T09:14:12;22.08;;;20.77;;
13849;SDS011;6995;52.618;13.488;2023-05-10T09:16:39;21.52;;;20.23;;
13849;SDS011;6995;52.618;13.488;2023-05-10T09:19:06;22.23;;;20.92;;
13849;SDS011;6995;52.618;13.488;2023-05-10T09:21:34;24.52;;;23.00;;
13849;SDS011;6995;52.618;13.488;2023-05-10T09:24:03;22.73;;;21.42;;
13849;SDS011;6995;52.618;13.488;2023-05-10T09:26:30;22.27;;;21.05;;
13849;SDS011;6995;52.618;13.488;2023-05-10T09:28:56;23.65;;;22.15;;
13849;SDS011;6995;52.618;13.488;2023-05-10T09:31:24;21.88;;;20.63;;
13849;SDS011;6995;52.618;13.488;2023-05-10T09:34:07;25.15;;;23.63;;
13849;SDS011;6995;52.618;13.488;2023-05-10T09:36:33;22.70;;;21.42;;
13849;SDS011;6995;52.618;13.488;2023-05-10T09:38:58;22.63;;;21.45;;
13849;SDS011;6995;52.618;13.488;2023-05-10T09:41:38;22.75;;;21.35;;
13849;SDS011;6995;52.618;13.488;2023-05-10T09:44:07;22.10;;;20.73;;
13849;SDS011;6995;52.618;13.488;2023-05-10T09:46:35;21.88;;;20.77;;
13849;SDS011;6995;52.618;13.488;2023-05-10T09:49:01;21.23;;;20.13;;
13849;SDS011;6995;52.618;13.488;2023-05-10T09:51:27;23.20;;;21.40;;
13849;SDS011;6995;52.618;13.488;2023-05-10T09:56:54;21.90;;;20.70;;
13849;SDS011;6995;52.618;13.488;2023-05-10T09:59:20;22.75;;;21.45;;
13849;SDS011;6995;52.618;13.488;2023-05-10T10:01:49;26.75;;;24.80;;
13849;SDS011;6995;52.618;13.488;2023-05-10T10:04:15;23.40;;;21.85;;
13849;SDS011;6995;52.618;13.488;2023-05-10T10:06:41;22.60;;;21.40;;
13849;SDS011;6995;52.618;13.488;2023-05-10T10:09:07;24.58;;;23.17;;
13849;SDS011;6995;52.618;13.488;2023-05-10T10:11:34;23.17;;;21.95;;
13849;SDS011;6995;52.618;13.488;2023-05-10T10:14:01;23.98;;;22.73;;
13849;SDS011;6995;52.618;13.488;2023-05-10T10:16:28;22.23;;;20.88;;
13849;SDS011;6995;52.618;13.488;2023-05-10T10:18:55;20.25;;;19.02;;
13849;SDS011;6995;52.618;13.488;2023-05-10T10:21:20;20.38;;;19.17;;
13849;SDS011;6995;52.618;13.488;2023-05-10T10:23:47;26.58;;;24.88;;
13849;SDS011;6995;52.618;13.488;2023-05-10T10:26:13;21.05;;;19.80;;
13849;SDS011;6995;52.618;13.488;2023-05-10T10:33:59;21.80;;;20.15;;
13849;SDS011;6995;52.618;13.488;2023-05-10T10:36:28;19.63;;;18.52;;
13849;SDS011;6995;52.618;13.488;2023-05-10T10:38:58;21.77;;;20.55;;
13849;SDS011;6995;52.618;13.488;2023-05-10T10:46:58;22.08;;;20.88;;
13849;SDS011;6995;52.618;13.488;2023-05-10T10:49:31;20.58;;;19.30;;
13849;SDS011;6995;52.618;13.488;2023-05-10T10:54:40;20.48;;;19.25;;
13849;SDS011;6995;52.618;13.488;2023-05-10T10:57:13;19.95;;;18.75;;
13849;SDS011;6995;52.618;13.488;2023-05-10T10:59:42;20.95;;;19.83;;
13849;SDS011;6995;52.618;13.488;2023-05-10T11:02:09;22.23;;;20.83;;
13849;SDS011;6995;52.618;13.488;2023-05-10T11:04:41;22.95;;;21.27;;
13849;SDS011;6995;52.618;13.488;2023-05-10T11:07:18;20.30;;;19.20;;
13849;SDS011;6995;52.618;13.488;2023-05-10T11:09:45;21.60;;;20.40;;
13849;SDS011;6995;52.618;13.488;2023-05-10T11:14:40;25.98;;;24.42;;
13849;SDS011;6995;52.618;13.488;2023-05-10T11:17:22;22.90;;;21.50;;
13849;SDS011;6995;52.618;13.488;2023-05-10T11:22:48;20.95;;;19.75;;
13849;SDS011;6995;52.618;13.488;2023-05-10T11:25:16;22.15;;;20.67;;
13849;SDS011;6995;52.618;13.488;2023-05-10T11:27:41;18.60;;;17.55;;
13849;SDS011;6995;52.618;13.488;2023-05-10T11:30:07;18.48;;;17.48;;
13849;SDS011;6995;52.618;13.488;2023-05-10T11:32:37;18.85;;;17.73;;
13849;SDS011;6995;52.618;13.488;2023-05-10T11:35:07;18.45;;;16.90;;
13849;SDS011;6995;52.618;13.488;2023-05-10T11:37:33;32.17;;;21.38;;
13849;SDS011;6995;52.618;13.488;2023-05-10T11:39:59;19.75;;;18.25;;
13849;SDS011;6995;52.618;13.488;2023-05-10T11:42:25;19.02;;;17.92;;
13849;SDS011;6995;52.618;13.488;2023-05-10T11:44:52;18.17;;;17.20;;
13849;SDS011;6995;52.618;13.488;2023-05-10T11:47:17;19.10;;;17.77;;
13849;SDS011;6995;52.618;13.488;2023-05-10T11:49:43;19.55;;;18.15;;
13849;SDS011;6995;52.618;13.488;2023-05-10T11:52:10;19.40;;;18.17;;
13849;SDS011;6995;52.618;13.488;2023-05-10T11:54:51;18.58;;;17.40;;
13849;SDS011;6995;52.618;13.488;2023-05-10T11:57:18;20.10;;;18.60;;
13849;SDS011;6995;52.618;13.488;2023-05-10T11:59:45;21.25;;;20.00;;
13849;SDS011;6995;52.618;13.488;2023-05-10T12:02:11;22.35;;;20.80;;
13849;SDS011;6995;52.618;13.488;2023-05-10T12:04:37;22.25;;;20.67;;
13849;SDS011;6995;52.618;13.488;2023-05-10T12:07:03;19.90;;;18.58;;
13849;SDS011;6995;52.618;13.488;2023-05-10T12:09:29;19.45;;;18.25;;
13849;SDS011;6995;52.618;13.488;2023-05-10T12:11:55;18.55;;;17.45;;
13849;SDS011;6995;52.618;13.488;2023-05-10T12:14:24;18.50;;;17.30;;
13849;SDS011;6995;52.618;13.488;2023-05-10T12:16:50;20.45;;;19.25;;
13849;SDS011;6995;52.618;13.488;2023-05-10T12:19:19;22.05;;;20.15;;
13849;SDS011;6995;52.618;13.488;2023-05-10T12:21:46;21.67;;;20.25;;
13849;SDS011;6995;52.618;13.488;2023-05-10T12:24:12;20.80;;;19.15;;
13849;SDS011;6995;52.618;13.488;2023-05-10T12:26:38;20.85;;;18.83;;
13849;SDS011;6995;52.618;13.488;2023-05-10T12:31:49;21.02;;;19.63;;
13849;SDS011;6995;52.618;13.488;2023-05-10T12:37:00;28.77;;;26.85;;
13849;SDS011;6995;52.618;13.488;2023-05-10T12:39:40;22.35;;;20.95;;
13849;SDS011;6995;52.618;13.488;2023-05-10T12:42:07;19.13;;;17.52;;
13849;SDS011;6995;52.618;13.488;2023-05-10T12:44:33;17.13;;;16.20;;
13849;SDS011;6995;52.618;13.488;2023-05-10T12:46:59;18.73;;;17.17;;
13849;SDS011;6995;52.618;13.488;2023-05-10T12:49:24;16.17;;;15.35;;
13849;SDS011;6995;52.618;13.488;2023-05-10T12:51:50;19.63;;;18.02;;
13849;SDS011;6995;52.618;13.488;2023-05-10T12:54:15;18.92;;;17.83;;
13849;SDS011;6995;52.618;13.488;2023-05-10T12:56:41;21.05;;;19.55;;
13849;SDS011;6995;52.618;13.488;2023-05-10T12:59:07;20.95;;;19.45;;
13849;SDS011;6995;52.618;13.488;2023-05-10T13:01:33;23.05;;;21.08;;
13849;SDS011;6995;52.618;13.488;2023-05-10T13:03:58;18.98;;;17.80;;
13849;SDS011;6995;52.618;13.488;2023-05-10T13:06:25;18.17;;;17.08;;
13849;SDS011;6995;52.618;13.488;2023-05-10T13:08:50;19.70;;;18.00;;
13849;SDS011;6995;52.618;13.488;2023-05-10T13:11:16;20.55;;;18.88;;
13849;SDS011;6995;52.618;13.488;2023-05-10T13:13:44;22.17;;;20.88;;
13849;SDS011;6995;52.618;13.488;2023-05-10T13:16:10;21.08;;;19.23;;
13849;SDS011;6995;52.618;13.488;2023-05-10T13:18:36;20.88;;;19.38;;
13849;SDS011;6995;52.618;13.488;2023-05-10T13:21:01;18.05;;;16.70;;
13849;SDS011;6995;52.618;13.488;2023-05-10T13:23:28;18.63;;;17.25;;
13849;SDS011;6995;52.618;13.488;2023-05-10T13:25:54;18.08;;;16.95;;
13849;SDS011;6995;52.618;13.488;2023-05-10T13:28:20;20.83;;;19.40;;
13849;SDS011;6995;52.618;13.488;2023-05-10T13:30:45;22.98;;;21.13;;
13849;SDS011;6995;52.618;13.488;2023-05-10T13:33:11;21.98;;;20.00;;
13849;SDS011;6995;52.618;13.488;2023-05-10T13:35:37;22.13;;;20.70;;
13849;SDS011;6995;52.618;13.488;2023-05-10T13:38:02;20.73;;;19.63;;
13849;SDS011;6995;52.618;13.488;2023-05-10T13:40:28;20.60;;;19.33;;
13849;SDS011;6995;52.618;13.488;2023-05-10T13:42:54;19.15;;;17.95;;
13849;SDS011;6995;52.618;13.488;2023-05-10T13:45:19;20.40;;;19.20;;
13849;SDS011;6995;52.618;13.488;2023-05-10T13:47:45;20.92;;;19.15;;
13849;SDS011;6995;52.618;13.488;2023-05-10T13:50:11;20.60;;;19.42;;
13849;SDS011;6995;52.618;13.488;2023-05-10T13:52:36;17.95;;;16.90;;
13849;SDS011;6995;52.618;13.488;2023-05-10T13:55:02;18.73;;;17.70;;
13849;SDS011;6995;52.618;13.488;2023-05-10T13:57:28;20.02;;;18.98;;
13849;SDS011;6995;52.618;13.488;2023-05-10T13:59:55;18.42;;;17.52;;
13849;SDS011;6995;52.618;13.488;2023-05-10T14:02:22;16.10;;;15.23;;
13849;SDS011;6995;52.618;13.488;2023-05-10T14:04:47;16.48;;;15.43;;
13849;SDS011;6995;52.618;13.488;2023-05-10T14:07:13;16.00;;;14.93;;
13849;SDS011;6995;52.618;13.488;2023-05-10T14:09:39;17.35;;;16.08;;
13849;SDS011;6995;52.618;13.488;2023-05-10T14:12:04;17.05;;;15.88;;
13849;SDS011;6995;52.618;13.488;2023-05-10T14:14:30;16.90;;;15.60;;
13849;SDS011;6995;52.618;13.488;2023-05-10T14:16:56;17.67;;;16.67;;
13849;SDS011;6995;52.618;13.488;2023-05-10T14:19:21;17.65;;;15.93;;
13849;SDS011;6995;52.618;13.488;2023-05-10T14:21:47;19.00;;;17.80;;
13849;SDS011;6995;52.618;13.488;2023-05-10T14:24:13;16.38;;;15.48;;
13849;SDS011;6995;52.618;13.488;2023-05-10T14:26:38;17.80;;;16.73;;
13849;SDS011;6995;52.618;13.488;2023-05-10T14:29:04;15.65;;;14.38;;
13849;SDS011;6995;52.618;13.488;2023-05-10T14:31:30;16.90;;;15.90;;
13849;SDS011;6995;52.618;13.488;2023-05-10T14:33:55;16.13;;;15.23;;
13849;SDS011;6995;52.618;13.488;2023-05-10T14:36:22;16.73;;;15.75;;
13849;SDS011;6995;52.618;13.488;2023-05-10T14:38:48;18.98;;;17.63;;
13849;SDS011;6995;52.618;13.488;2023-05-10T14:41:14;16.58;;;15.40;;
13849;SDS011;6995;52.618;13.488;2023-05-10T14:43:42;17.73;;;16.70;;
13849;SDS011;6995;52.618;13.488;2023-05-10T14:46:08;18.77;;;17.52;;
13849;SDS011;6995;52.618;13.488;2023-05-10T14:48:33;18.15;;;17.08;;
13849;SDS011;6995;52.618;13.488;2023-05-10T14:50:59;17.02;;;16.13;;
13849;SDS011;6995;52.618;13.488;2023-05-10T14:53:25;17.17;;;16.08;;
13849;SDS011;6995;52.618;13.488;2023-05-10T14:55:51;17.10;;;15.82;;
13849;SDS011;6995;52.618;13.488;2023-05-10T14:58:17;16.02;;;14.98;;
13849;SDS011;6995;52.618;13.488;2023-05-10T15:00:42;18.85;;;17.65;;